sensor_id;sensor_type;location;lat;lon;timestamp;P1;durP1;ratioP1;P2;durP2;ratioP2
22282;SDS011;11310;51.528;21.204;2024-01-30T00:00:08;40.33;;;17.83;;
22282;SDS011;11310;51.528;21.204;2024-01-30T00:02:37;43.50;;;20.80;;
22282;SDS011;11310;51.528;21.204;2024-01-30T00:05:08;44.65;;;21.63;;
22282;SDS011;11310;51.528;21.204;2024-01-30T00:07:36;49.22;;;20.35;;
22282;SDS011;11310;51.528;21.204;2024-01-30T00:10:05;51.42;;;23.13;;
22282;SDS011;11310;51.528;21.204;2024-01-30T00:12:34;44.00;;;20.40;;
22282;SDS011;11310;51.528;21.204;2024-01-30T00:15:03;44.75;;;21.05;;
22282;SDS011;11310;51.528;21.204;2024-01-30T00:17:35;39.85;;;17.52;;
22282;SDS011;11310;51.528;21.204;2024-01-30T00:20:08;29.42;;;13.98;;
22282;SDS011;11310;51.528;21.204;2024-01-30T00:22:37;41.65;;;18.33;;
22282;SDS011;11310;51.528;21.204;2024-01-30T00:25:09;36.78;;;17.60;;
22282;SDS011;11310;51.528;21.204;2024-01-30T00:27:38;46.30;;;19.83;;
22282;SDS011;11310;51.528;21.204;2024-01-30T00:30:07;39.38;;;17.92;;
22282;SDS011;11310;51.528;21.204;2024-01-30T00:32:38;34.03;;;16.20;;
22282;SDS011;11310;51.528;21.204;2024-01-30T00:35:07;43.70;;;21.80;;
22282;SDS011;11310;51.528;21.204;2024-01-30T00:37:38;40.47;;;18.48;;
22282;SDS011;11310;51.528;21.204;2024-01-30T00:40:07;48.53;;;21.98;;
22282;SDS011;11310;51.528;21.204;2024-01-30T00:42:40;36.85;;;17.88;;
22282;SDS011;11310;51.528;21.204;2024-01-30T00:45:11;40.95;;;21.95;;
22282;SDS011;11310;51.528;21.204;2024-01-30T00:47:40;39.03;;;21.20;;
22282;SDS011;11310;51.528;21.204;2024-01-30T00:50:10;45.80;;;20.98;;
22282;SDS011;11310;51.528;21.204;2024-01-30T00:52:39;41.92;;;17.85;;
22282;SDS011;11310;51.528;21.204;2024-01-30T00:55:08;41.67;;;18.95;;
22282;SDS011;11310;51.528;21.204;2024-01-30T00:57:41;49.33;;;24.80;;
22282;SDS011;11310;51.528;21.204;2024-01-30T01:00:13;46.60;;;24.88;;
22282;SDS011;11310;51.528;21.204;2024-01-30T01:02:44;43.15;;;20.52;;
22282;SDS011;11310;51.528;21.204;2024-01-30T01:05:13;44.28;;;22.98;;
22282;SDS011;11310;51.528;21.204;2024-01-30T01:07:44;45.75;;;22.40;;
22282;SDS011;11310;51.528;21.204;2024-01-30T01:10:14;43.28;;;22.17;;
22282;SDS011;11310;51.528;21.204;2024-01-30T01:12:44;40.03;;;20.98;;
22282;SDS011;11310;51.528;21.204;2024-01-30T01:15:12;38.20;;;22.05;;
22282;SDS011;11310;51.528;21.204;2024-01-30T01:17:41;36.00;;;18.60;;
22282;SDS011;11310;51.528;21.204;2024-01-30T01:20:09;33.85;;;17.30;;
22282;SDS011;11310;51.528;21.204;2024-01-30T01:22:39;35.22;;;17.20;;
22282;SDS011;11310;51.528;21.204;2024-01-30T01:25:08;30.20;;;15.48;;
22282;SDS011;11310;51.528;21.204;2024-01-30T01:27:37;30.88;;;16.20;;
22282;SDS011;11310;51.528;21.204;2024-01-30T01:30:09;33.75;;;16.95;;
22282;SDS011;11310;51.528;21.204;2024-01-30T01:32:38;35.40;;;16.80;;
22282;SDS011;11310;51.528;21.204;2024-01-30T01:35:12;34.45;;;20.27;;
22282;SDS011;11310;51.528;21.204;2024-01-30T01:37:42;36.00;;;17.25;;
22282;SDS011;11310;51.528;21.204;2024-01-30T01:40:10;39.40;;;22.15;;
22282;SDS011;11310;51.528;21.204;2024-01-30T01:42:40;31.25;;;14.93;;
22282;SDS011;11310;51.528;21.204;2024-01-30T01:45:08;31.70;;;17.00;;
22282;SDS011;11310;51.528;21.204;2024-01-30T01:47:37;29.83;;;15.02;;
22282;SDS011;11310;51.528;21.204;2024-01-30T01:50:06;39.75;;;21.27;;
22282;SDS011;11310;51.528;21.204;2024-01-30T01:52:36;28.55;;;14.50;;
22282;SDS011;11310;51.528;21.204;2024-01-30T01:55:11;34.50;;;17.77;;
22282;SDS011;11310;51.528;21.204;2024-01-30T01:57:41;28.25;;;15.85;;
22282;SDS011;11310;51.528;21.204;2024-01-30T02:00:10;34.53;;;16.50;;
22282;SDS011;11310;51.528;21.204;2024-01-30T02:02:39;29.02;;;14.65;;
22282;SDS011;11310;51.528;21.204;2024-01-30T02:05:09;32.72;;;16.50;;
22282;SDS011;11310;51.528;21.204;2024-01-30T02:07:38;29.92;;;14.73;;
22282;SDS011;11310;51.528;21.204;2024-01-30T02:10:07;30.58;;;14.73;;
22282;SDS011;11310;51.528;21.204;2024-01-30T02:12:38;27.45;;;14.30;;
22282;SDS011;11310;51.528;21.204;2024-01-30T02:15:08;29.20;;;14.18;;
22282;SDS011;11310;51.528;21.204;2024-01-30T02:17:37;29.05;;;14.27;;
22282;SDS011;11310;51.528;21.204;2024-01-30T02:20:05;30.55;;;16.38;;
22282;SDS011;11310;51.528;21.204;2024-01-30T02:22:36;31.10;;;16.98;;
22282;SDS011;11310;51.528;21.204;2024-01-30T02:25:07;26.75;;;12.60;;
22282;SDS011;11310;51.528;21.204;2024-01-30T02:27:38;27.95;;;12.98;;
22282;SDS011;11310;51.528;21.204;2024-01-30T02:30:08;31.63;;;13.10;;
22282;SDS011;11310;51.528;21.204;2024-01-30T02:32:40;25.30;;;14.02;;
22282;SDS011;11310;51.528;21.204;2024-01-30T02:35:08;24.20;;;11.30;;
22282;SDS011;11310;51.528;21.204;2024-01-30T02:37:39;28.70;;;13.02;;
22282;SDS011;11310;51.528;21.204;2024-01-30T02:40:08;27.15;;;12.98;;
22282;SDS011;11310;51.528;21.204;2024-01-30T02:42:38;25.50;;;12.52;;
22282;SDS011;11310;51.528;21.204;2024-01-30T02:45:08;27.15;;;14.35;;
22282;SDS011;11310;51.528;21.204;2024-01-30T02:47:40;30.77;;;12.57;;
22282;SDS011;11310;51.528;21.204;2024-01-30T02:50:09;26.13;;;12.45;;
22282;SDS011;11310;51.528;21.204;2024-01-30T02:52:44;24.70;;;12.88;;
22282;SDS011;11310;51.528;21.204;2024-01-30T02:55:15;27.17;;;13.73;;
22282;SDS011;11310;51.528;21.204;2024-01-30T02:57:46;28.65;;;13.43;;
22282;SDS011;11310;51.528;21.204;2024-01-30T03:00:14;25.23;;;14.35;;
22282;SDS011;11310;51.528;21.204;2024-01-30T03:02:44;28.13;;;13.57;;
22282;SDS011;11310;51.528;21.204;2024-01-30T03:05:15;33.33;;;16.60;;
22282;SDS011;11310;51.528;21.204;2024-01-30T03:07:45;24.85;;;12.57;;
22282;SDS011;11310;51.528;21.204;2024-01-30T03:12:46;24.75;;;11.60;;
22282;SDS011;11310;51.528;21.204;2024-01-30T03:15:15;28.33;;;12.90;;
22282;SDS011;11310;51.528;21.204;2024-01-30T03:17:46;28.67;;;11.23;;
22282;SDS011;11310;51.528;21.204;2024-01-30T03:20:14;28.98;;;15.02;;
22282;SDS011;11310;51.528;21.204;2024-01-30T03:22:45;28.15;;;12.82;;
22282;SDS011;11310;51.528;21.204;2024-01-30T03:27:48;35.97;;;18.90;;
22282;SDS011;11310;51.528;21.204;2024-01-30T03:30:17;28.35;;;12.00;;
22282;SDS011;11310;51.528;21.204;2024-01-30T03:32:46;23.98;;;13.52;;
22282;SDS011;11310;51.528;21.204;2024-01-30T03:35:15;32.53;;;19.02;;
22282;SDS011;11310;51.528;21.204;2024-01-30T03:37:43;29.35;;;15.52;;
22282;SDS011;11310;51.528;21.204;2024-01-30T03:40:14;28.42;;;13.57;;
22282;SDS011;11310;51.528;21.204;2024-01-30T03:42:43;26.92;;;13.82;;
22282;SDS011;11310;51.528;21.204;2024-01-30T03:45:13;30.42;;;15.60;;
22282;SDS011;11310;51.528;21.204;2024-01-30T03:47:43;25.95;;;12.05;;
22282;SDS011;11310;51.528;21.204;2024-01-30T03:50:11;24.60;;;12.60;;
22282;SDS011;11310;51.528;21.204;2024-01-30T03:52:40;25.02;;;12.60;;
22282;SDS011;11310;51.528;21.204;2024-01-30T03:55:10;25.20;;;12.45;;
22282;SDS011;11310;51.528;21.204;2024-01-30T03:57:38;24.88;;;12.30;;
22282;SDS011;11310;51.528;21.204;2024-01-30T04:00:07;25.88;;;11.65;;
22282;SDS011;11310;51.528;21.204;2024-01-30T04:02:39;28.75;;;11.98;;
22282;SDS011;11310;51.528;21.204;2024-01-30T04:05:11;26.75;;;13.20;;
22282;SDS011;11310;51.528;21.204;2024-01-30T04:07:39;23.00;;;10.90;;
22282;SDS011;11310;51.528;21.204;2024-01-30T04:10:08;22.40;;;11.50;;
22282;SDS011;11310;51.528;21.204;2024-01-30T04:12:38;25.48;;;12.13;;
22282;SDS011;11310;51.528;21.204;2024-01-30T04:15:07;28.58;;;12.00;;
22282;SDS011;11310;51.528;21.204;2024-01-30T04:17:41;27.17;;;11.57;;
22282;SDS011;11310;51.528;21.204;2024-01-30T04:22:42;25.73;;;10.88;;
22282;SDS011;11310;51.528;21.204;2024-01-30T04:25:12;22.88;;;11.25;;
22282;SDS011;11310;51.528;21.204;2024-01-30T04:27:41;25.77;;;10.68;;
22282;SDS011;11310;51.528;21.204;2024-01-30T04:30:10;28.30;;;10.82;;
22282;SDS011;11310;51.528;21.204;2024-01-30T04:32:39;25.50;;;11.10;;
22282;SDS011;11310;51.528;21.204;2024-01-30T04:35:07;21.95;;;11.15;;
22282;SDS011;11310;51.528;21.204;2024-01-30T04:37:39;28.73;;;11.25;;
22282;SDS011;11310;51.528;21.204;2024-01-30T04:40:07;27.25;;;11.80;;
22282;SDS011;11310;51.528;21.204;2024-01-30T04:42:38;21.23;;;10.20;;
22282;SDS011;11310;51.528;21.204;2024-01-30T04:45:07;26.63;;;11.88;;
22282;SDS011;11310;51.528;21.204;2024-01-30T04:47:37;25.27;;;11.35;;
22282;SDS011;11310;51.528;21.204;2024-01-30T04:50:06;25.00;;;10.63;;
22282;SDS011;11310;51.528;21.204;2024-01-30T04:52:36;27.30;;;11.10;;
22282;SDS011;11310;51.528;21.204;2024-01-30T04:55:05;23.70;;;11.20;;
22282;SDS011;11310;51.528;21.204;2024-01-30T04:57:39;23.63;;;10.80;;
22282;SDS011;11310;51.528;21.204;2024-01-30T05:00:10;22.23;;;10.43;;
22282;SDS011;11310;51.528;21.204;2024-01-30T05:02:39;23.77;;;11.18;;
22282;SDS011;11310;51.528;21.204;2024-01-30T05:05:07;22.45;;;11.05;;
22282;SDS011;11310;51.528;21.204;2024-01-30T05:07:40;35.97;;;18.48;;
22282;SDS011;11310;51.528;21.204;2024-01-30T05:10:09;24.33;;;12.23;;
22282;SDS011;11310;51.528;21.204;2024-01-30T05:12:40;25.80;;;12.27;;
22282;SDS011;11310;51.528;21.204;2024-01-30T05:15:09;26.38;;;11.68;;
22282;SDS011;11310;51.528;21.204;2024-01-30T05:17:38;27.10;;;13.30;;
22282;SDS011;11310;51.528;21.204;2024-01-30T05:20:08;24.65;;;10.23;;
22282;SDS011;11310;51.528;21.204;2024-01-30T05:22:38;22.83;;;10.20;;
22282;SDS011;11310;51.528;21.204;2024-01-30T05:25:12;23.27;;;10.02;;
22282;SDS011;11310;51.528;21.204;2024-01-30T05:27:44;27.40;;;10.75;;
22282;SDS011;11310;51.528;21.204;2024-01-30T05:30:13;21.98;;;9.70;;
22282;SDS011;11310;51.528;21.204;2024-01-30T05:32:43;20.27;;;9.13;;
22282;SDS011;11310;51.528;21.204;2024-01-30T05:35:11;24.15;;;10.23;;
22282;SDS011;11310;51.528;21.204;2024-01-30T05:37:40;23.25;;;10.07;;
22282;SDS011;11310;51.528;21.204;2024-01-30T05:40:11;24.42;;;9.95;;
22282;SDS011;11310;51.528;21.204;2024-01-30T05:45:10;23.08;;;9.73;;
22282;SDS011;11310;51.528;21.204;2024-01-30T05:47:40;26.17;;;10.82;;
22282;SDS011;11310;51.528;21.204;2024-01-30T05:50:09;24.55;;;10.80;;
22282;SDS011;11310;51.528;21.204;2024-01-30T05:52:38;24.40;;;10.95;;
22282;SDS011;11310;51.528;21.204;2024-01-30T05:55:12;23.52;;;10.25;;
22282;SDS011;11310;51.528;21.204;2024-01-30T05:57:41;23.45;;;10.48;;
22282;SDS011;11310;51.528;21.204;2024-01-30T06:00:11;26.50;;;11.15;;
22282;SDS011;11310;51.528;21.204;2024-01-30T06:02:40;23.77;;;9.80;;
22282;SDS011;11310;51.528;21.204;2024-01-30T06:05:09;26.45;;;10.93;;
22282;SDS011;11310;51.528;21.204;2024-01-30T06:07:38;22.00;;;10.52;;
22282;SDS011;11310;51.528;21.204;2024-01-30T06:10:10;26.70;;;10.32;;
22282;SDS011;11310;51.528;21.204;2024-01-30T06:12:39;25.98;;;10.90;;
22282;SDS011;11310;51.528;21.204;2024-01-30T06:15:08;23.27;;;10.73;;
22282;SDS011;11310;51.528;21.204;2024-01-30T06:17:41;27.17;;;10.57;;
22282;SDS011;11310;51.528;21.204;2024-01-30T06:20:10;37.70;;;11.93;;
22282;SDS011;11310;51.528;21.204;2024-01-30T06:22:38;33.33;;;13.15;;
22282;SDS011;11310;51.528;21.204;2024-01-30T06:25:07;30.92;;;12.85;;
22282;SDS011;11310;51.528;21.204;2024-01-30T06:27:38;36.45;;;14.05;;
22282;SDS011;11310;51.528;21.204;2024-01-30T06:30:07;33.05;;;14.18;;
22282;SDS011;11310;51.528;21.204;2024-01-30T06:32:37;37.42;;;14.40;;
22282;SDS011;11310;51.528;21.204;2024-01-30T06:35:11;37.93;;;14.97;;
22282;SDS011;11310;51.528;21.204;2024-01-30T06:37:40;30.60;;;13.70;;
22282;SDS011;11310;51.528;21.204;2024-01-30T06:40:09;34.40;;;13.10;;
22282;SDS011;11310;51.528;21.204;2024-01-30T06:42:38;32.78;;;14.23;;
22282;SDS011;11310;51.528;21.204;2024-01-30T06:45:09;33.70;;;12.38;;
22282;SDS011;11310;51.528;21.204;2024-01-30T06:47:41;31.52;;;12.88;;
22282;SDS011;11310;51.528;21.204;2024-01-30T06:50:12;29.35;;;11.52;;
22282;SDS011;11310;51.528;21.204;2024-01-30T06:52:41;29.95;;;13.20;;
22282;SDS011;11310;51.528;21.204;2024-01-30T06:57:41;26.20;;;11.25;;
22282;SDS011;11310;51.528;21.204;2024-01-30T07:00:11;27.55;;;11.50;;
22282;SDS011;11310;51.528;21.204;2024-01-30T07:02:41;27.75;;;11.57;;
22282;SDS011;11310;51.528;21.204;2024-01-30T07:05:12;27.52;;;12.05;;
22282;SDS011;11310;51.528;21.204;2024-01-30T07:07:45;31.38;;;12.00;;
22282;SDS011;11310;51.528;21.204;2024-01-30T07:10:13;32.90;;;12.95;;
22282;SDS011;11310;51.528;21.204;2024-01-30T07:12:42;33.60;;;12.63;;
22282;SDS011;11310;51.528;21.204;2024-01-30T07:15:11;26.27;;;11.38;;
22282;SDS011;11310;51.528;21.204;2024-01-30T07:17:43;31.23;;;12.35;;
22282;SDS011;11310;51.528;21.204;2024-01-30T07:20:13;27.95;;;11.30;;
22282;SDS011;11310;51.528;21.204;2024-01-30T07:22:44;31.67;;;11.27;;
22282;SDS011;11310;51.528;21.204;2024-01-30T07:25:13;34.55;;;11.73;;
22282;SDS011;11310;51.528;21.204;2024-01-30T07:27:42;29.65;;;11.85;;
22282;SDS011;11310;51.528;21.204;2024-01-30T07:30:11;27.80;;;11.48;;
22282;SDS011;11310;51.528;21.204;2024-01-30T07:32:40;31.88;;;12.07;;
22282;SDS011;11310;51.528;21.204;2024-01-30T07:35:09;30.27;;;11.75;;
22282;SDS011;11310;51.528;21.204;2024-01-30T07:37:40;28.77;;;11.85;;
22282;SDS011;11310;51.528;21.204;2024-01-30T07:40:09;29.10;;;11.05;;
22282;SDS011;11310;51.528;21.204;2024-01-30T07:42:41;30.25;;;12.27;;
22282;SDS011;11310;51.528;21.204;2024-01-30T07:45:10;28.60;;;12.35;;
22282;SDS011;11310;51.528;21.204;2024-01-30T07:47:39;26.15;;;10.55;;
22282;SDS011;11310;51.528;21.204;2024-01-30T07:50:09;24.48;;;10.15;;
22282;SDS011;11310;51.528;21.204;2024-01-30T07:52:40;30.50;;;12.00;;
22282;SDS011;11310;51.528;21.204;2024-01-30T07:55:09;26.33;;;10.93;;
22282;SDS011;11310;51.528;21.204;2024-01-30T07:57:38;27.00;;;11.02;;
22282;SDS011;11310;51.528;21.204;2024-01-30T08:00:08;27.90;;;11.45;;
22282;SDS011;11310;51.528;21.204;2024-01-30T08:02:38;29.73;;;11.48;;
22282;SDS011;11310;51.528;21.204;2024-01-30T08:05:08;28.58;;;11.18;;
22282;SDS011;11310;51.528;21.204;2024-01-30T08:07:39;29.27;;;10.90;;
22282;SDS011;11310;51.528;21.204;2024-01-30T08:10:10;20.17;;;10.02;;
22282;SDS011;11310;51.528;21.204;2024-01-30T08:12:39;26.48;;;10.45;;
22282;SDS011;11310;51.528;21.204;2024-01-30T08:15:09;27.42;;;10.98;;
22282;SDS011;11310;51.528;21.204;2024-01-30T08:17:40;21.73;;;10.48;;
22282;SDS011;11310;51.528;21.204;2024-01-30T08:20:12;25.48;;;10.98;;
22282;SDS011;11310;51.528;21.204;2024-01-30T08:25:10;28.95;;;10.27;;
22282;SDS011;11310;51.528;21.204;2024-01-30T08:27:41;27.67;;;10.82;;
22282;SDS011;11310;51.528;21.204;2024-01-30T08:30:11;22.65;;;9.93;;
22282;SDS011;11310;51.528;21.204;2024-01-30T08:32:40;24.75;;;9.93;;
22282;SDS011;11310;51.528;21.204;2024-01-30T08:35:11;28.45;;;11.27;;
22282;SDS011;11310;51.528;21.204;2024-01-30T08:37:42;28.08;;;11.15;;
22282;SDS011;11310;51.528;21.204;2024-01-30T08:40:12;26.98;;;11.00;;
22282;SDS011;11310;51.528;21.204;2024-01-30T08:42:41;24.70;;;10.45;;
22282;SDS011;11310;51.528;21.204;2024-01-30T08:45:19;25.27;;;10.55;;
22282;SDS011;11310;51.528;21.204;2024-01-30T08:47:51;24.52;;;10.77;;
22282;SDS011;11310;51.528;21.204;2024-01-30T08:50:23;29.45;;;12.43;;
22282;SDS011;11310;51.528;21.204;2024-01-30T08:52:53;25.60;;;11.65;;
22282;SDS011;11310;51.528;21.204;2024-01-30T08:55:23;25.90;;;11.65;;
22282;SDS011;11310;51.528;21.204;2024-01-30T08:57:51;23.63;;;10.73;;
22282;SDS011;11310;51.528;21.204;2024-01-30T09:00:21;25.95;;;11.27;;
22282;SDS011;11310;51.528;21.204;2024-01-30T09:02:52;24.73;;;10.38;;
22282;SDS011;11310;51.528;21.204;2024-01-30T09:05:21;27.92;;;10.13;;
22282;SDS011;11310;51.528;21.204;2024-01-30T09:07:50;27.33;;;11.55;;
22282;SDS011;11310;51.528;21.204;2024-01-30T09:10:23;24.75;;;9.98;;
22282;SDS011;11310;51.528;21.204;2024-01-30T09:12:55;21.75;;;9.65;;
22282;SDS011;11310;51.528;21.204;2024-01-30T09:15:23;26.77;;;9.63;;
22282;SDS011;11310;51.528;21.204;2024-01-30T09:17:52;23.83;;;10.05;;
22282;SDS011;11310;51.528;21.204;2024-01-30T09:20:21;24.23;;;10.07;;
22282;SDS011;11310;51.528;21.204;2024-01-30T09:22:50;20.65;;;8.60;;
22282;SDS011;11310;51.528;21.204;2024-01-30T09:25:21;19.40;;;9.43;;
22282;SDS011;11310;51.528;21.204;2024-01-30T09:27:52;20.23;;;9.18;;
22282;SDS011;11310;51.528;21.204;2024-01-30T09:30:20;19.55;;;9.25;;
22282;SDS011;11310;51.528;21.204;2024-01-30T09:32:49;22.98;;;9.23;;
22282;SDS011;11310;51.528;21.204;2024-01-30T09:35:18;22.88;;;9.48;;
22282;SDS011;11310;51.528;21.204;2024-01-30T09:37:48;24.55;;;10.00;;
22282;SDS011;11310;51.528;21.204;2024-01-30T09:40:19;22.50;;;9.23;;
22282;SDS011;11310;51.528;21.204;2024-01-30T09:42:53;22.08;;;9.25;;
22282;SDS011;11310;51.528;21.204;2024-01-30T09:45:29;52.25;;;21.75;;
22282;SDS011;11310;51.528;21.204;2024-01-30T09:48:00;31.02;;;13.40;;
22282;SDS011;11310;51.528;21.204;2024-01-30T09:50:30;23.33;;;10.25;;
22282;SDS011;11310;51.528;21.204;2024-01-30T09:53:00;60.35;;;24.55;;
22282;SDS011;11310;51.528;21.204;2024-01-30T09:55:29;59.15;;;26.48;;
22282;SDS011;11310;51.528;21.204;2024-01-30T09:58:02;53.13;;;21.65;;
22282;SDS011;11310;51.528;21.204;2024-01-30T10:00:31;26.20;;;10.63;;
22282;SDS011;11310;51.528;21.204;2024-01-30T10:03:03;29.08;;;12.45;;
22282;SDS011;11310;51.528;21.204;2024-01-30T10:05:32;21.83;;;9.73;;
22282;SDS011;11310;51.528;21.204;2024-01-30T10:08:06;19.30;;;8.95;;
22282;SDS011;11310;51.528;21.204;2024-01-30T10:10:35;22.77;;;8.88;;
22282;SDS011;11310;51.528;21.204;2024-01-30T10:13:05;20.90;;;9.38;;
22282;SDS011;11310;51.528;21.204;2024-01-30T10:15:34;21.33;;;8.80;;
22282;SDS011;11310;51.528;21.204;2024-01-30T10:18:05;21.55;;;8.32;;
22282;SDS011;11310;51.528;21.204;2024-01-30T10:20:35;18.92;;;8.10;;
22282;SDS011;11310;51.528;21.204;2024-01-30T10:23:04;16.70;;;7.38;;
22282;SDS011;11310;51.528;21.204;2024-01-30T10:25:32;19.60;;;8.13;;
22282;SDS011;11310;51.528;21.204;2024-01-30T10:28:01;19.60;;;7.45;;
22282;SDS011;11310;51.528;21.204;2024-01-30T10:30:31;16.42;;;6.85;;
22282;SDS011;11310;51.528;21.204;2024-01-30T10:32:59;18.77;;;7.40;;
22282;SDS011;11310;51.528;21.204;2024-01-30T10:35:29;19.55;;;7.78;;
22282;SDS011;11310;51.528;21.204;2024-01-30T10:37:58;17.55;;;7.15;;
22282;SDS011;11310;51.528;21.204;2024-01-30T10:40:28;20.92;;;10.80;;
22282;SDS011;11310;51.528;21.204;2024-01-30T10:43:00;25.85;;;15.77;;
22282;SDS011;11310;51.528;21.204;2024-01-30T10:45:34;24.17;;;11.50;;
22282;SDS011;11310;51.528;21.204;2024-01-30T10:48:06;26.60;;;15.05;;
22282;SDS011;11310;51.528;21.204;2024-01-30T10:50:40;17.20;;;8.60;;
22282;SDS011;11310;51.528;21.204;2024-01-30T10:53:22;21.23;;;9.75;;
22282;SDS011;11310;51.528;21.204;2024-01-30T10:55:54;241.50;;;79.90;;
22282;SDS011;11310;51.528;21.204;2024-01-30T10:58:25;286.05;;;97.25;;
22282;SDS011;11310;51.528;21.204;2024-01-30T11:00:56;115.90;;;42.65;;
22282;SDS011;11310;51.528;21.204;2024-01-30T11:03:25;126.53;;;56.40;;
22282;SDS011;11310;51.528;21.204;2024-01-30T11:05:58;39.70;;;19.52;;
22282;SDS011;11310;51.528;21.204;2024-01-30T11:08:28;35.83;;;19.63;;
22282;SDS011;11310;51.528;21.204;2024-01-30T11:11:00;73.15;;;36.22;;
22282;SDS011;11310;51.528;21.204;2024-01-30T11:13:29;51.25;;;23.27;;
22282;SDS011;11310;51.528;21.204;2024-01-30T11:16:01;31.13;;;16.65;;
22282;SDS011;11310;51.528;21.204;2024-01-30T11:18:31;124.53;;;50.03;;
22282;SDS011;11310;51.528;21.204;2024-01-30T11:21:00;40.47;;;19.92;;
22282;SDS011;11310;51.528;21.204;2024-01-30T11:23:28;35.38;;;15.20;;
22282;SDS011;11310;51.528;21.204;2024-01-30T11:25:57;55.22;;;26.42;;
22282;SDS011;11310;51.528;21.204;2024-01-30T11:28:31;23.42;;;10.20;;
22282;SDS011;11310;51.528;21.204;2024-01-30T11:31:06;23.45;;;10.40;;
22282;SDS011;11310;51.528;21.204;2024-01-30T11:33:35;17.65;;;7.75;;
22282;SDS011;11310;51.528;21.204;2024-01-30T11:36:04;15.82;;;6.85;;
22282;SDS011;11310;51.528;21.204;2024-01-30T11:41:04;14.68;;;6.00;;
22282;SDS011;11310;51.528;21.204;2024-01-30T11:43:34;15.48;;;6.20;;
22282;SDS011;11310;51.528;21.204;2024-01-30T11:46:03;14.70;;;6.35;;
22282;SDS011;11310;51.528;21.204;2024-01-30T11:48:36;12.57;;;5.25;;
22282;SDS011;11310;51.528;21.204;2024-01-30T11:51:05;15.88;;;5.75;;
22282;SDS011;11310;51.528;21.204;2024-01-30T11:53:33;13.05;;;4.80;;
22282;SDS011;11310;51.528;21.204;2024-01-30T11:56:02;14.40;;;5.32;;
22282;SDS011;11310;51.528;21.204;2024-01-30T12:01:03;12.05;;;4.18;;
22282;SDS011;11310;51.528;21.204;2024-01-30T12:03:33;13.88;;;5.28;;
22282;SDS011;11310;51.528;21.204;2024-01-30T12:06:02;14.65;;;6.60;;
22282;SDS011;11310;51.528;21.204;2024-01-30T12:08:35;21.00;;;11.60;;
22282;SDS011;11310;51.528;21.204;2024-01-30T12:11:06;16.52;;;7.32;;
22282;SDS011;11310;51.528;21.204;2024-01-30T12:13:38;20.63;;;9.63;;
22282;SDS011;11310;51.528;21.204;2024-01-30T12:16:09;22.05;;;8.57;;
22282;SDS011;11310;51.528;21.204;2024-01-30T12:18:39;23.50;;;7.78;;
22282;SDS011;11310;51.528;21.204;2024-01-30T12:21:10;23.92;;;8.38;;
22282;SDS011;11310;51.528;21.204;2024-01-30T12:23:39;25.70;;;7.75;;
22282;SDS011;11310;51.528;21.204;2024-01-30T12:26:08;28.77;;;10.85;;
22282;SDS011;11310;51.528;21.204;2024-01-30T12:28:46;22.88;;;8.32;;
22282;SDS011;11310;51.528;21.204;2024-01-30T12:31:15;27.23;;;10.85;;
22282;SDS011;11310;51.528;21.204;2024-01-30T12:33:55;15.68;;;6.47;;
22282;SDS011;11310;51.528;21.204;2024-01-30T12:36:28;21.33;;;9.57;;
22282;SDS011;11310;51.528;21.204;2024-01-30T12:38:58;21.42;;;8.40;;
22282;SDS011;11310;51.528;21.204;2024-01-30T12:41:27;16.52;;;7.53;;
22282;SDS011;11310;51.528;21.204;2024-01-30T12:43:57;15.05;;;6.43;;
22282;SDS011;11310;51.528;21.204;2024-01-30T12:46:34;14.15;;;6.75;;
22282;SDS011;11310;51.528;21.204;2024-01-30T12:49:04;12.75;;;6.20;;
22282;SDS011;11310;51.528;21.204;2024-01-30T12:51:33;15.40;;;6.97;;
22282;SDS011;11310;51.528;21.204;2024-01-30T12:54:04;20.75;;;12.77;;
22282;SDS011;11310;51.528;21.204;2024-01-30T12:59:02;13.13;;;5.55;;
22282;SDS011;11310;51.528;21.204;2024-01-30T13:01:30;11.55;;;6.30;;
22282;SDS011;11310;51.528;21.204;2024-01-30T13:04:00;10.88;;;5.32;;
22282;SDS011;11310;51.528;21.204;2024-01-30T13:06:31;11.50;;;6.38;;
22282;SDS011;11310;51.528;21.204;2024-01-30T13:08:59;13.27;;;6.60;;
22282;SDS011;11310;51.528;21.204;2024-01-30T13:11:28;12.95;;;6.72;;
22282;SDS011;11310;51.528;21.204;2024-01-30T13:13:57;11.13;;;5.85;;
22282;SDS011;11310;51.528;21.204;2024-01-30T13:16:25;14.10;;;6.88;;
22282;SDS011;11310;51.528;21.204;2024-01-30T13:18:55;11.98;;;5.10;;
22282;SDS011;11310;51.528;21.204;2024-01-30T13:21:24;11.88;;;6.93;;
22282;SDS011;11310;51.528;21.204;2024-01-30T13:23:54;11.57;;;6.43;;
22282;SDS011;11310;51.528;21.204;2024-01-30T13:26:25;15.00;;;6.93;;
22282;SDS011;11310;51.528;21.204;2024-01-30T13:28:55;11.95;;;5.78;;
22282;SDS011;11310;51.528;21.204;2024-01-30T13:31:25;11.93;;;6.75;;
22282;SDS011;11310;51.528;21.204;2024-01-30T13:33:58;13.68;;;6.72;;
22282;SDS011;11310;51.528;21.204;2024-01-30T13:36:30;15.38;;;6.65;;
22282;SDS011;11310;51.528;21.204;2024-01-30T13:41:55;12.25;;;5.13;;
22282;SDS011;11310;51.528;21.204;2024-01-30T13:44:27;15.57;;;9.10;;
22282;SDS011;11310;51.528;21.204;2024-01-30T13:46:56;12.75;;;6.55;;
22282;SDS011;11310;51.528;21.204;2024-01-30T13:49:24;14.45;;;6.90;;
22282;SDS011;11310;51.528;21.204;2024-01-30T13:54:26;14.98;;;6.93;;
22282;SDS011;11310;51.528;21.204;2024-01-30T13:56:55;11.95;;;5.53;;
22282;SDS011;11310;51.528;21.204;2024-01-30T13:59:25;12.38;;;7.40;;
22282;SDS011;11310;51.528;21.204;2024-01-30T14:01:53;13.45;;;6.50;;
22282;SDS011;11310;51.528;21.204;2024-01-30T14:04:22;14.32;;;7.82;;
22282;SDS011;11310;51.528;21.204;2024-01-30T14:06:51;12.48;;;6.93;;
22282;SDS011;11310;51.528;21.204;2024-01-30T14:09:31;12.98;;;7.45;;
22282;SDS011;11310;51.528;21.204;2024-01-30T14:12:01;14.07;;;6.72;;
22282;SDS011;11310;51.528;21.204;2024-01-30T14:14:30;16.70;;;9.25;;
22282;SDS011;11310;51.528;21.204;2024-01-30T14:16:58;12.27;;;5.63;;
22282;SDS011;11310;51.528;21.204;2024-01-30T14:19:27;16.50;;;9.63;;
22282;SDS011;11310;51.528;21.204;2024-01-30T14:21:56;11.80;;;5.95;;
22282;SDS011;11310;51.528;21.204;2024-01-30T14:24:25;18.35;;;7.85;;
22282;SDS011;11310;51.528;21.204;2024-01-30T14:26:55;27.42;;;18.70;;
22282;SDS011;11310;51.528;21.204;2024-01-30T14:29:27;20.77;;;10.65;;
22282;SDS011;11310;51.528;21.204;2024-01-30T14:31:56;19.70;;;8.80;;
22282;SDS011;11310;51.528;21.204;2024-01-30T14:34:25;19.25;;;10.45;;
22282;SDS011;11310;51.528;21.204;2024-01-30T14:36:55;17.73;;;7.65;;
22282;SDS011;11310;51.528;21.204;2024-01-30T14:39:24;18.23;;;10.40;;
22282;SDS011;11310;51.528;21.204;2024-01-30T14:41:53;20.90;;;8.45;;
22282;SDS011;11310;51.528;21.204;2024-01-30T14:44:25;24.65;;;12.40;;
22282;SDS011;11310;51.528;21.204;2024-01-30T14:46:53;19.17;;;9.25;;
22282;SDS011;11310;51.528;21.204;2024-01-30T14:49:22;26.40;;;11.75;;
22282;SDS011;11310;51.528;21.204;2024-01-30T14:51:54;22.20;;;10.07;;
22282;SDS011;11310;51.528;21.204;2024-01-30T14:54:25;21.70;;;12.32;;